createdAt,value
2017-08-17T00:00:39.809Z,33.53
2017-08-17T00:03:07.146Z,31.40
2017-08-17T00:05:34.490Z,29.97
2017-08-17T00:08:02.132Z,28.07
2017-08-17T00:10:29.478Z,29.60
2017-08-17T00:12:56.827Z,31.67
2017-08-17T00:15:24.154Z,28.70
2017-08-17T00:17:51.504Z,30.50
2017-08-17T00:20:18.833Z,29.40
2017-08-17T00:22:46.191Z,29.00
2017-08-17T00:25:13.514Z,28.87
2017-08-17T00:27:40.907Z,29.50
2017-08-17T00:30:08.222Z,29.20
2017-08-17T00:32:35.650Z,28.57
2017-08-17T00:35:03.011Z,29.00
2017-08-17T00:37:30.332Z,31.13
2017-08-17T00:39:57.698Z,31.23
2017-08-17T00:42:25.022Z,33.07
2017-08-17T00:44:52.345Z,29.73
2017-08-17T00:47:19.705Z,29.67
2017-08-17T00:49:47.034Z,30.10
2017-08-17T00:52:14.386Z,29.93
2017-08-17T00:54:41.716Z,29.93
2017-08-17T00:57:09.402Z,31.07
2017-08-17T00:59:36.705Z,28.53
2017-08-17T01:02:04.036Z,31.63
2017-08-17T01:04:31.446Z,30.23
2017-08-17T01:06:58.733Z,29.33
2017-08-17T01:09:26.099Z,28.47
2017-08-17T01:11:53.410Z,31.17
2017-08-17T01:14:20.760Z,32.53
2017-08-17T01:16:48.103Z,31.10
2017-08-17T01:19:15.455Z,33.83
2017-08-17T01:21:42.770Z,30.73
2017-08-17T01:24:10.121Z,30.63
2017-08-17T01:26:37.448Z,29.30
2017-08-17T01:29:04.765Z,27.23
2017-08-17T01:31:32.084Z,28.80
2017-08-17T01:33:59.425Z,30.70
2017-08-17T01:36:26.734Z,30.03
2017-08-17T01:38:54.097Z,31.27
2017-08-17T01:41:21.430Z,35.50
2017-08-17T01:43:48.783Z,31.47
2017-08-17T01:46:16.089Z,32.23
2017-08-17T01:48:43.443Z,31.30
2017-08-17T01:51:10.755Z,30.87
2017-08-17T01:53:38.096Z,31.20
2017-08-17T01:56:05.410Z,31.07
2017-08-17T01:58:32.722Z,32.53
2017-08-17T02:01:00.058Z,29.60
2017-08-17T02:03:27.357Z,29.07
2017-08-17T02:05:54.676Z,31.33
2017-08-17T02:08:22.000Z,29.80
2017-08-17T02:10:49.320Z,30.10
2017-08-17T02:13:16.655Z,28.60
2017-08-17T02:15:44.390Z,28.97
2017-08-17T02:18:11.730Z,27.27
2017-08-17T02:20:39.401Z,26.83
2017-08-17T02:23:06.724Z,29.77
2017-08-17T02:25:34.097Z,30.57
2017-08-17T02:28:01.406Z,27.30
2017-08-17T02:30:28.760Z,29.87
2017-08-17T02:32:56.111Z,29.80
2017-08-17T02:35:23.460Z,29.13
2017-08-17T02:37:50.766Z,27.60
2017-08-17T02:40:18.105Z,27.27
2017-08-17T02:42:45.442Z,27.27
2017-08-17T02:45:12.762Z,28.00
2017-08-17T02:47:40.088Z,26.87
2017-08-17T02:50:07.388Z,28.10
2017-08-17T02:52:34.722Z,28.40
2017-08-17T02:55:02.051Z,28.77
2017-08-17T02:57:29.402Z,31.07
2017-08-17T02:59:56.725Z,28.20
2017-08-17T03:02:24.086Z,27.40
2017-08-17T03:04:51.401Z,29.33
2017-08-17T03:07:18.716Z,28.70
2017-08-17T03:09:46.034Z,29.70
2017-08-17T03:12:13.393Z,29.43
2017-08-17T03:14:40.866Z,29.43
2017-08-17T03:17:08.190Z,30.10
2017-08-17T03:19:35.511Z,29.77
2017-08-17T03:22:02.842Z,28.90
2017-08-17T03:24:30.149Z,30.00
2017-08-17T03:26:57.504Z,27.40
2017-08-17T03:29:25.113Z,27.00
2017-08-17T03:31:52.486Z,30.13
2017-08-17T03:34:19.835Z,32.17
2017-08-17T03:36:47.153Z,31.80
2017-08-17T03:39:14.483Z,31.07
2017-08-17T03:41:41.814Z,29.60
2017-08-17T03:44:09.498Z,28.47
2017-08-17T03:46:36.816Z,27.80
2017-08-17T03:49:04.130Z,26.43
2017-08-17T03:51:31.445Z,28.70
2017-08-17T03:53:58.768Z,30.07
2017-08-17T03:56:26.077Z,27.63
2017-08-17T03:58:53.432Z,28.60
2017-08-17T04:01:20.760Z,28.17
2017-08-17T04:03:48.133Z,26.90
2017-08-17T04:06:15.650Z,27.17
2017-08-17T04:08:42.980Z,27.00
2017-08-17T04:11:10.281Z,26.50
2017-08-17T04:13:37.610Z,25.43
2017-08-17T04:16:04.932Z,26.00
2017-08-17T04:18:32.259Z,27.43
2017-08-17T04:20:59.575Z,28.17
2017-08-17T04:23:26.896Z,27.53
2017-08-17T04:25:54.210Z,27.37
2017-08-17T04:28:21.540Z,27.10
2017-08-17T04:30:48.863Z,26.40
2017-08-17T04:33:16.256Z,27.20
2017-08-17T04:35:43.586Z,26.43
2017-08-17T04:38:10.910Z,24.97
2017-08-17T04:40:38.290Z,25.83
2017-08-17T04:43:05.605Z,26.67
2017-08-17T04:45:32.954Z,26.50
2017-08-17T04:48:00.261Z,26.13
2017-08-17T04:50:27.683Z,27.63
2017-08-17T04:52:55.002Z,27.40
2017-08-17T04:55:22.365Z,26.87
2017-08-17T04:58:01.364Z,26.20
2017-08-17T05:00:28.730Z,24.87
2017-08-17T05:02:56.039Z,25.43
2017-08-17T05:05:23.429Z,25.50
2017-08-17T05:07:50.770Z,25.37
2017-08-17T05:10:18.208Z,25.73
2017-08-17T05:12:45.550Z,24.20
2017-08-17T05:15:12.871Z,24.20
2017-08-17T05:17:40.172Z,25.53
2017-08-17T05:20:07.504Z,24.77
2017-08-17T05:22:34.811Z,25.27
2017-08-17T05:25:02.163Z,25.30
2017-08-17T05:27:29.513Z,27.13
2017-08-17T05:29:56.851Z,29.00
2017-08-17T05:32:24.196Z,24.60
2017-08-17T05:34:51.518Z,26.57
2017-08-17T05:37:18.879Z,26.70
2017-08-17T05:39:46.515Z,24.50
2017-08-17T05:42:13.873Z,24.90
2017-08-17T05:44:41.189Z,26.17
2017-08-17T05:47:08.575Z,26.90
2017-08-17T05:49:35.894Z,26.20
2017-08-17T05:52:03.242Z,26.20
2017-08-17T05:54:30.550Z,25.73
2017-08-17T05:56:57.923Z,24.80
2017-08-17T05:59:25.234Z,23.60
2017-08-17T06:01:52.584Z,23.80
2017-08-17T06:04:19.925Z,22.67
2017-08-17T06:06:47.268Z,24.33
2017-08-17T06:09:14.584Z,24.00
2017-08-17T06:11:41.903Z,23.20
2017-08-17T06:14:09.606Z,22.40
2017-08-17T06:16:37.871Z,23.17
2017-08-17T06:19:05.217Z,21.60
2017-08-17T06:21:32.580Z,22.23
2017-08-17T06:23:59.901Z,23.10
2017-08-17T06:26:27.220Z,23.03
2017-08-17T06:28:54.596Z,20.47
2017-08-17T06:31:21.927Z,20.20
2017-08-17T06:33:49.312Z,21.40
2017-08-17T06:36:16.631Z,22.17
2017-08-17T06:38:43.981Z,22.17
2017-08-17T06:41:11.329Z,21.20
2017-08-17T06:43:38.646Z,21.47
2017-08-17T06:46:05.998Z,20.50
2017-08-17T06:48:33.307Z,22.27
2017-08-17T06:51:00.656Z,20.23
2017-08-17T06:53:27.989Z,21.37
2017-08-17T06:55:55.356Z,21.60
2017-08-17T06:58:22.694Z,21.30
2017-08-17T07:00:50.034Z,20.40
2017-08-17T07:03:17.341Z,18.90
2017-08-17T07:05:44.670Z,19.67
2017-08-17T07:08:12.005Z,20.53
2017-08-17T07:10:39.791Z,19.90
2017-08-17T07:13:07.132Z,19.70
2017-08-17T07:15:34.464Z,19.50
2017-08-17T07:18:01.798Z,19.57
2017-08-17T07:20:29.149Z,19.40
2017-08-17T07:22:56.470Z,18.00
2017-08-17T07:25:23.831Z,20.60
2017-08-17T07:27:51.175Z,18.50
2017-08-17T07:30:18.502Z,19.60
2017-08-17T07:32:45.853Z,19.70
2017-08-17T07:35:13.219Z,19.90
2017-08-17T07:37:40.517Z,19.70
2017-08-17T07:40:07.874Z,20.20
2017-08-17T07:42:35.206Z,18.40
2017-08-17T07:45:02.570Z,19.17
2017-08-17T07:47:29.893Z,17.00
2017-08-17T07:49:57.284Z,18.03
2017-08-17T07:52:24.588Z,17.10
2017-08-17T07:54:51.903Z,18.23
2017-08-17T07:57:19.243Z,18.07
2017-08-17T07:59:46.609Z,15.67
2017-08-17T08:02:13.939Z,16.30
2017-08-17T08:04:41.270Z,16.40
2017-08-17T08:07:08.645Z,17.63
2017-08-17T08:09:35.953Z,16.57
2017-08-17T08:12:03.339Z,15.70
2017-08-17T08:14:30.692Z,15.10
2017-08-17T08:16:58.024Z,15.50
2017-08-17T08:19:25.331Z,15.10
2017-08-17T08:21:52.680Z,15.17
2017-08-17T08:24:20.006Z,14.07
2017-08-17T08:26:47.340Z,15.07
2017-08-17T08:29:14.769Z,14.30
2017-08-17T08:31:42.139Z,11.70
2017-08-17T08:34:09.917Z,12.33
2017-08-17T08:36:37.250Z,12.33
2017-08-17T08:39:04.585Z,11.83
2017-08-17T08:41:31.893Z,12.77
2017-08-17T08:43:59.221Z,11.93
2017-08-17T08:46:26.562Z,12.47
2017-08-17T08:48:53.882Z,11.67
2017-08-17T08:51:21.192Z,10.93
2017-08-17T08:53:48.540Z,11.60
2017-08-17T08:56:15.858Z,10.87
2017-08-17T08:58:43.497Z,11.53
2017-08-17T09:01:10.839Z,11.50
2017-08-17T09:03:38.188Z,11.07
2017-08-17T09:06:05.535Z,11.30
2017-08-17T09:08:32.882Z,12.03
2017-08-17T09:11:00.201Z,13.73
2017-08-17T09:13:27.572Z,11.97
2017-08-17T09:15:54.902Z,11.77
2017-08-17T09:18:22.234Z,11.90
2017-08-17T09:20:49.573Z,10.80
2017-08-17T09:23:16.896Z,11.80
2017-08-17T09:25:44.214Z,12.57
2017-08-17T09:28:11.524Z,10.77
2017-08-17T09:30:39.168Z,10.90
2017-08-17T09:33:06.477Z,11.50
2017-08-17T09:35:33.880Z,10.83
2017-08-17T09:38:01.185Z,11.20
2017-08-17T09:40:28.531Z,11.97
2017-08-17T09:42:55.829Z,9.90
2017-08-17T09:45:23.161Z,10.73
2017-08-17T09:47:50.466Z,9.70
2017-08-17T09:50:17.765Z,9.80
2017-08-17T09:52:45.116Z,9.20
2017-08-17T09:55:12.436Z,8.67
2017-08-17T09:57:40.047Z,8.87
2017-08-17T10:00:07.357Z,8.87
2017-08-17T10:02:34.716Z,9.30
2017-08-17T10:05:02.055Z,9.43
2017-08-17T10:07:29.385Z,9.93
2017-08-17T10:09:56.707Z,9.63
2017-08-17T10:12:24.058Z,10.00
2017-08-17T10:14:51.387Z,9.40
2017-08-17T10:17:18.736Z,10.00
2017-08-17T10:19:46.083Z,9.87
2017-08-17T10:22:13.414Z,9.40
2017-08-17T10:24:40.750Z,9.53
2017-08-17T10:27:08.120Z,10.70
2017-08-17T10:29:35.431Z,9.77
2017-08-17T10:32:02.782Z,9.20
2017-08-17T10:34:30.101Z,10.00
2017-08-17T10:36:57.424Z,10.10
2017-08-17T10:39:24.733Z,10.27
2017-08-17T10:41:52.053Z,9.80
2017-08-17T10:44:19.365Z,9.77
2017-08-17T10:46:46.688Z,9.43
2017-08-17T10:49:14.020Z,9.60
2017-08-17T10:51:41.342Z,9.13
2017-08-17T10:54:08.676Z,8.57
2017-08-17T10:56:35.978Z,7.80
2017-08-17T10:59:03.338Z,8.00
2017-08-17T11:01:30.649Z,7.60
2017-08-17T11:03:57.962Z,7.90
2017-08-17T11:06:25.958Z,7.23
2017-08-17T11:08:53.311Z,7.57
2017-08-17T11:11:20.606Z,7.77
2017-08-17T11:13:47.927Z,7.27
2017-08-17T11:16:15.228Z,7.90
2017-08-17T11:18:42.592Z,7.77
2017-08-17T11:21:10.200Z,7.60
2017-08-17T11:23:37.566Z,8.90
2017-08-17T11:26:04.895Z,7.53
2017-08-17T11:28:32.260Z,6.93
2017-08-17T11:30:59.625Z,7.43
2017-08-17T11:33:26.926Z,7.37
2017-08-17T11:35:54.279Z,7.93
2017-08-17T11:38:21.591Z,7.80
2017-08-17T11:40:48.910Z,7.10
2017-08-17T11:43:16.256Z,7.23
2017-08-17T11:45:44.720Z,7.13
2017-08-17T11:48:12.147Z,7.30
2017-08-17T11:50:39.654Z,6.90
2017-08-17T11:53:07.070Z,7.23
2017-08-17T11:55:34.450Z,7.23
2017-08-17T11:58:02.104Z,7.43
2017-08-17T12:00:30.028Z,6.70
2017-08-17T12:02:57.393Z,7.23
2017-08-17T12:05:24.812Z,7.10
2017-08-17T12:07:52.380Z,6.50
2017-08-17T12:10:19.710Z,6.60
2017-08-17T12:12:47.047Z,6.70
2017-08-17T12:15:14.808Z,6.30
2017-08-17T12:17:42.152Z,6.63
2017-08-17T12:20:09.622Z,6.40
2017-08-17T12:22:36.950Z,6.50
2017-08-17T12:25:04.741Z,6.90
2017-08-17T12:27:32.109Z,5.90
2017-08-17T12:29:59.524Z,6.30
2017-08-17T12:32:26.885Z,6.60
2017-08-17T12:34:54.377Z,6.17
2017-08-17T12:37:21.715Z,6.00
2017-08-17T12:39:49.088Z,6.70
2017-08-17T12:42:16.570Z,6.50
2017-08-17T12:44:44.061Z,6.50
2017-08-17T12:47:11.365Z,5.97
2017-08-17T12:49:38.689Z,5.80
2017-08-17T12:52:06.019Z,5.43
2017-08-17T12:54:33.330Z,6.23
2017-08-17T12:57:00.675Z,5.90
2017-08-17T12:59:28.024Z,6.47
2017-08-17T13:01:55.348Z,5.80
2017-08-17T13:04:22.662Z,5.93
2017-08-17T13:06:50.069Z,6.70
2017-08-17T13:09:17.382Z,6.50
2017-08-17T13:11:44.996Z,6.30
2017-08-17T13:14:12.306Z,6.43
2017-08-17T13:16:39.627Z,6.50
2017-08-17T13:19:07.094Z,6.10
2017-08-17T13:21:34.458Z,6.20
2017-08-17T13:24:01.816Z,6.10
2017-08-17T13:26:29.155Z,6.60
2017-08-17T13:28:56.587Z,7.30
2017-08-17T13:31:23.936Z,6.80
2017-08-17T13:33:51.275Z,6.20
2017-08-17T13:36:18.671Z,6.73
2017-08-17T13:38:46.052Z,6.80
2017-08-17T13:41:13.478Z,7.10
2017-08-17T13:43:40.866Z,6.87
2017-08-17T13:46:08.267Z,6.67
2017-08-17T13:48:35.638Z,6.33
2017-08-17T13:51:02.933Z,6.27
2017-08-17T13:53:30.256Z,6.90
2017-08-17T13:55:57.600Z,6.70
2017-08-17T13:58:24.947Z,6.53
2017-08-17T14:00:52.313Z,6.80
2017-08-17T14:03:19.716Z,6.60
2017-08-17T14:05:47.175Z,6.43
2017-08-17T14:08:14.592Z,6.60
2017-08-17T14:10:41.993Z,6.40
2017-08-17T14:13:09.502Z,6.30
2017-08-17T14:15:36.833Z,6.47
2017-08-17T14:18:04.180Z,6.63
2017-08-17T14:20:31.542Z,6.87
2017-08-17T14:22:58.862Z,6.33
2017-08-17T14:25:26.182Z,6.30
2017-08-17T14:27:54.033Z,6.00
2017-08-17T14:30:21.346Z,6.50
2017-08-17T14:32:49.031Z,6.87
2017-08-17T14:35:16.498Z,6.70
2017-08-17T14:37:43.893Z,6.23
2017-08-17T14:40:11.515Z,6.27
2017-08-17T14:42:38.877Z,6.67
2017-08-17T14:45:06.215Z,6.63
2017-08-17T14:47:33.529Z,6.00
2017-08-17T14:50:01.082Z,6.33
2017-08-17T14:52:28.457Z,6.53
2017-08-17T14:54:55.797Z,5.80
2017-08-17T14:57:23.519Z,5.97
2017-08-17T14:59:50.881Z,6.23
2017-08-17T15:02:18.187Z,6.40
2017-08-17T15:04:45.514Z,6.57
2017-08-17T15:07:12.815Z,5.93
2017-08-17T15:09:40.588Z,6.00
2017-08-17T15:12:07.907Z,5.87
2017-08-17T15:14:36.150Z,6.50
2017-08-17T15:17:03.659Z,6.00
2017-08-17T15:19:30.967Z,5.90
2017-08-17T15:21:58.435Z,5.77
2017-08-17T15:24:25.735Z,6.50
2017-08-17T15:26:53.059Z,6.03
2017-08-17T15:29:20.393Z,5.93
2017-08-17T15:31:47.930Z,6.30
2017-08-17T15:34:15.446Z,5.90
2017-08-17T15:36:43.591Z,7.10
2017-08-17T15:39:10.973Z,5.97
2017-08-17T15:41:38.422Z,5.87
2017-08-17T15:44:06.982Z,6.27
2017-08-17T15:46:34.616Z,6.53
2017-08-17T15:49:01.910Z,6.57
2017-08-17T15:51:29.217Z,6.27
2017-08-17T15:53:56.719Z,7.17
2017-08-17T15:56:24.444Z,7.10
2017-08-17T15:58:51.786Z,6.50
2017-08-17T16:01:19.628Z,6.83
2017-08-17T16:03:47.065Z,7.40
2017-08-17T16:06:14.502Z,6.83
2017-08-17T16:08:42.243Z,7.37
2017-08-17T16:11:10.037Z,6.80
2017-08-17T16:13:37.353Z,7.30
2017-08-17T16:16:06.047Z,7.70
2017-08-17T16:18:33.403Z,7.60
2017-08-17T16:21:00.842Z,7.00
2017-08-17T16:23:28.626Z,6.90
2017-08-17T16:25:56.193Z,6.90
2017-08-17T16:28:23.616Z,6.40
2017-08-17T16:30:51.001Z,7.20
2017-08-17T16:33:18.385Z,7.40
2017-08-17T16:35:45.900Z,6.90
2017-08-17T16:38:13.549Z,6.97
2017-08-17T16:40:41.019Z,6.90
2017-08-17T16:43:08.589Z,7.20
2017-08-17T16:45:35.901Z,7.77
2017-08-17T16:48:41.167Z,7.13
2017-08-17T16:51:08.525Z,7.80
2017-08-17T16:53:35.968Z,7.57
2017-08-17T16:56:04.233Z,7.43
2017-08-17T16:58:31.679Z,7.70
2017-08-17T17:00:59.010Z,6.70
2017-08-17T17:03:26.335Z,8.37
2017-08-17T17:05:53.670Z,7.20
2017-08-17T17:08:20.972Z,7.77
2017-08-17T17:10:48.320Z,7.60
2017-08-17T17:13:15.620Z,7.37
2017-08-17T17:15:42.978Z,7.53
2017-08-17T17:18:10.302Z,7.10
2017-08-17T17:20:37.619Z,7.27
2017-08-17T17:23:04.923Z,7.40
2017-08-17T17:25:32.238Z,7.80
2017-08-17T17:27:59.727Z,6.90
2017-08-17T17:30:27.088Z,7.63
2017-08-17T17:32:54.455Z,7.53
2017-08-17T17:35:21.798Z,7.67
2017-08-17T17:37:49.116Z,8.10
2017-08-17T17:40:16.423Z,9.43
2017-08-17T17:42:43.760Z,8.70
2017-08-17T17:45:11.090Z,7.67
2017-08-17T17:47:38.428Z,8.90
2017-08-17T17:50:05.794Z,8.50
2017-08-17T17:52:33.114Z,8.53
2017-08-17T17:55:00.437Z,8.37
2017-08-17T17:57:27.794Z,9.67
2017-08-17T17:59:55.105Z,9.63
2017-08-17T18:02:22.785Z,9.40
2017-08-17T18:04:50.131Z,8.80
2017-08-17T18:07:17.498Z,8.50
2017-08-17T18:09:44.819Z,8.50
2017-08-17T18:12:12.133Z,8.60
2017-08-17T18:14:39.462Z,9.43
2017-08-17T18:17:06.835Z,8.90
2017-08-17T18:19:34.143Z,9.60
2017-08-17T18:22:01.523Z,23.90
2017-08-17T18:24:28.921Z,10.87
2017-08-17T18:26:56.291Z,9.03
2017-08-17T18:29:23.650Z,8.87
2017-08-17T18:31:51.006Z,9.00
2017-08-17T18:34:18.317Z,9.13
2017-08-17T18:36:45.750Z,8.80
2017-08-17T18:39:13.107Z,9.13
2017-08-17T18:41:40.687Z,8.77
2017-08-17T18:44:08.006Z,9.53
2017-08-17T18:46:35.320Z,9.20
2017-08-17T18:49:02.655Z,9.80
2017-08-17T18:51:29.994Z,9.17
2017-08-17T18:53:57.425Z,9.27
2017-08-17T18:56:24.744Z,8.73
2017-08-17T18:58:52.062Z,9.40
2017-08-17T19:01:19.379Z,9.70
2017-08-17T19:03:46.735Z,9.80
2017-08-17T19:06:14.076Z,9.33
2017-08-17T19:08:41.437Z,10.57
2017-08-17T19:11:08.876Z,9.77
2017-08-17T19:13:36.221Z,9.30
2017-08-17T19:16:03.540Z,9.30
2017-08-17T19:18:30.892Z,11.07
2017-08-17T19:20:59.430Z,11.40
2017-08-17T19:23:26.787Z,11.70
2017-08-17T19:25:54.111Z,11.03
2017-08-17T19:28:21.451Z,11.10
2017-08-17T19:30:48.802Z,11.20
2017-08-17T19:33:16.168Z,12.23
2017-08-17T19:35:43.473Z,11.37
2017-08-17T19:38:10.802Z,10.43
2017-08-17T19:40:38.165Z,12.23
2017-08-17T19:43:05.489Z,13.17
2017-08-17T19:45:32.859Z,15.60
2017-08-17T19:48:00.179Z,14.43
2017-08-17T19:50:27.540Z,13.97
2017-08-17T19:52:54.865Z,14.40
2017-08-17T19:55:22.255Z,14.60
2017-08-17T19:57:49.591Z,14.47
2017-08-17T20:00:16.928Z,15.00
2017-08-17T20:02:44.256Z,14.60
2017-08-17T20:05:11.599Z,16.47
2017-08-17T20:07:38.923Z,15.43
2017-08-17T20:10:06.301Z,17.07
2017-08-17T20:12:33.710Z,15.53
2017-08-17T20:15:01.031Z,16.10
2017-08-17T20:17:28.889Z,16.30
2017-08-17T20:19:56.230Z,16.20
2017-08-17T20:22:23.593Z,15.43
2017-08-17T20:24:50.918Z,15.37
2017-08-17T20:27:18.279Z,16.53
2017-08-17T20:29:45.603Z,15.60
2017-08-17T20:32:12.959Z,16.20
2017-08-17T20:34:40.265Z,15.90
2017-08-17T20:37:07.657Z,16.87
2017-08-17T20:39:34.971Z,16.73
2017-08-17T20:42:02.327Z,16.73
2017-08-17T20:44:29.635Z,17.27
2017-08-17T20:46:57.015Z,16.53
2017-08-17T20:49:24.335Z,19.47
2017-08-17T20:51:51.678Z,17.97
2017-08-17T20:54:19.014Z,17.67
2017-08-17T20:56:46.369Z,19.43
2017-08-17T20:59:13.699Z,19.10
2017-08-17T21:01:41.972Z,17.80
2017-08-17T21:04:09.310Z,16.93
2017-08-17T21:06:36.659Z,14.70
2017-08-17T21:09:03.972Z,15.37
2017-08-17T21:11:31.339Z,16.20
2017-08-17T21:13:58.902Z,16.87
2017-08-17T21:16:26.209Z,16.63
2017-08-17T21:18:53.586Z,15.87
2017-08-17T21:21:20.903Z,18.60
2017-08-17T21:23:48.239Z,17.57
2017-08-17T21:26:15.572Z,17.17
2017-08-17T21:28:42.913Z,18.43
2017-08-17T21:31:10.254Z,17.90
2017-08-17T21:33:37.585Z,17.30
2017-08-17T21:36:04.931Z,18.10
2017-08-17T21:38:32.318Z,17.60
2017-08-17T21:40:59.627Z,17.90
2017-08-17T21:43:26.994Z,18.60
2017-08-17T21:45:54.298Z,18.97
2017-08-17T21:48:21.627Z,18.30
2017-08-17T21:50:48.963Z,18.33
2017-08-17T21:53:16.318Z,18.77
2017-08-17T21:55:43.650Z,18.93
2017-08-17T21:58:11.039Z,18.30
2017-08-17T22:00:38.692Z,18.60
2017-08-17T22:03:06.027Z,17.50
2017-08-17T22:05:33.558Z,16.47
2017-08-17T22:08:00.881Z,14.90
2017-08-17T22:10:28.224Z,15.47
2017-08-17T22:12:55.575Z,15.07
2017-08-17T22:15:22.941Z,15.67
2017-08-17T22:17:50.263Z,14.60
2017-08-17T22:20:17.618Z,15.13
2017-08-17T22:22:44.943Z,13.73
2017-08-17T22:25:12.272Z,13.40
2017-08-17T22:27:39.619Z,13.83
2017-08-17T22:30:06.959Z,14.17
2017-08-17T22:32:34.309Z,12.03
2017-08-17T22:35:01.663Z,12.60
2017-08-17T22:37:29.001Z,12.70
2017-08-17T22:39:56.342Z,12.53
2017-08-17T22:42:23.695Z,12.23
2017-08-17T22:44:51.014Z,11.90
2017-08-17T22:47:18.345Z,12.17
2017-08-17T22:49:45.682Z,11.13
2017-08-17T22:52:13.062Z,11.83
2017-08-17T22:54:40.378Z,11.10
2017-08-17T22:57:08.045Z,10.67
2017-08-17T22:59:35.350Z,11.80
2017-08-17T23:02:02.697Z,11.33
2017-08-17T23:04:30.036Z,11.07
2017-08-17T23:06:57.391Z,11.83
2017-08-17T23:09:24.715Z,12.37
2017-08-17T23:11:52.144Z,11.40
2017-08-17T23:14:19.444Z,11.07
2017-08-17T23:16:46.770Z,10.90
2017-08-17T23:19:14.109Z,11.90
2017-08-17T23:21:41.434Z,11.30
2017-08-17T23:24:08.783Z,11.60
2017-08-17T23:26:37.030Z,11.43
2017-08-17T23:29:04.395Z,12.90
2017-08-17T23:31:31.701Z,11.60
2017-08-17T23:33:59.071Z,12.50
2017-08-17T23:36:26.417Z,12.43
2017-08-17T23:38:53.745Z,12.23
2017-08-17T23:41:21.091Z,12.33
2017-08-17T23:43:48.431Z,11.83
2017-08-17T23:46:15.755Z,12.20
2017-08-17T23:48:43.132Z,11.53
2017-08-17T23:51:10.449Z,12.40
2017-08-17T23:53:38.131Z,12.73
2017-08-17T23:56:05.446Z,12.70
2017-08-17T23:58:32.787Z,12.57
